Time;durP1;ratioP1;P1;durP2;ratioP2;P2;SDS_P1;SDS_P2;PMS_P1;PMS_P2;Temp;Humidity;BMP_temperature;BMP_pressure;BME280_temperature;BME280_humidity;BME280_pressure;Samples;Min_cycle;Max_cycle;Signal;HPM_P1;HPM_P2
2023/01/13 00:00:58;;;;;;;4.33;2.50;;;;;;;7.28;nan;-24020.19;5014158;28;20699;-73
2023/01/13 00:03:24;;;;;;;4.37;3.00;;;;;;;6.63;nan;-24002.16;5031217;28;20254;-73
2023/01/13 00:05:50;;;;;;;4.23;2.67;;;;;;;7.12;nan;-24015.78;5033601;28;20195;-73
2023/01/13 00:08:15;;;;;;;3.67;2.60;;;;;;;7.27;nan;-24019.91;5033985;28;20179;-73
2023/01/13 00:10:46;;;;;;;3.70;2.50;;;;;;;6.65;nan;-24002.59;5033209;28;20198;-73
2023/01/13 00:13:11;;;;;;;2.83;2.13;;;;;;;7.24;nan;-24019.03;5031968;28;20221;-73
2023/01/13 00:15:36;;;;;;;3.40;2.53;;;;;;;6.98;nan;-24011.94;5033255;28;20183;-73
2023/01/13 00:18:02;;;;;;;2.80;2.27;;;;;;;7.24;nan;-24019.03;5038512;28;20211;-71
2023/01/13 00:20:27;;;;;;;3.70;2.60;;;;;;;6.83;nan;-24007.69;5045379;28;20191;-72
2023/01/13 00:22:54;;;;;;;2.97;2.50;;;;;;;7.08;nan;-24014.66;5033939;28;20179;-72
2023/01/13 00:25:19;;;;;;;3.97;2.53;;;;;;;6.96;nan;-24011.25;5033151;28;20210;-73
2023/01/13 00:27:44;;;;;;;2.47;2.00;;;;;;;6.68;nan;-24003.31;5033497;28;20180;-74
2023/01/13 00:30:10;;;;;;;4.13;2.40;;;;;;;6.74;nan;-24005.16;5033385;28;20176;-73
2023/01/13 00:32:35;;;;;;;5.90;2.93;;;;;;;6.89;nan;-24009.25;5033214;28;20174;-73
2023/01/13 00:35:01;;;;;;;3.10;2.80;;;;;;;7.07;nan;-24014.38;5033154;28;20665;-72
2023/01/13 00:37:26;;;;;;;3.93;2.60;;;;;;;7.03;nan;-24013.38;5033194;28;20586;-72
2023/01/13 00:39:52;;;;;;;3.60;2.80;;;;;;;6.80;nan;-24006.84;5033235;28;20184;-74
2023/01/13 00:45:02;;;;;;;3.13;2.37;;;;;;;6.82;nan;-24007.28;5033270;28;20210;-74
2023/01/13 00:47:28;;;;;;;5.07;3.00;;;;;;;6.82;nan;-24007.41;5033122;28;20175;-73
2023/01/13 00:49:54;;;;;;;3.07;2.60;;;;;;;6.48;nan;-23997.91;5033025;28;20265;-72
2023/01/13 00:52:19;;;;;;;6.70;2.93;;;;;;;6.98;nan;-24011.94;5033019;28;20175;-72
2023/01/13 00:54:45;;;;;;;2.27;2.03;;;;;;;6.59;nan;-24000.88;5033260;28;20182;-72
2023/01/13 00:57:10;;;;;;;4.03;2.70;;;;;;;6.70;nan;-24004.00;5032123;28;20191;-72
2023/01/13 00:59:36;;;;;;;3.87;2.23;;;;;;;6.88;nan;-24008.97;5031510;28;20743;-73
2023/01/13 01:02:01;;;;;;;2.50;2.30;;;;;;;6.55;nan;-23999.91;5032594;28;20223;-73
2023/01/13 01:04:26;;;;;;;2.13;2.00;;;;;;;6.96;nan;-24011.25;5032559;28;20735;-73
2023/01/13 01:06:52;;;;;;;2.63;2.23;;;;;;;7.01;nan;-24012.81;5032855;28;20190;-73
2023/01/13 01:09:17;;;;;;;5.10;2.90;;;;;;;6.64;nan;-24002.31;5031517;28;20179;-74
2023/01/13 01:11:43;;;;;;;3.80;2.47;;;;;;;6.90;nan;-24009.69;5032954;28;20167;-73
2023/01/13 01:14:11;;;;;;;2.90;2.47;;;;;;;6.63;nan;-24002.16;5032851;28;20728;-72
2023/01/13 01:16:38;;;;;;;2.70;2.30;;;;;;;6.56;nan;-24000.19;5032378;28;20191;-72
2023/01/13 01:19:04;;;;;;;3.27;2.57;;;;;;;6.79;nan;-24006.44;5032284;28;20187;-72
2023/01/13 01:21:30;;;;;;;3.03;2.43;;;;;;;6.97;nan;-24011.66;5031374;28;20673;-72
2023/01/13 01:23:59;;;;;;;2.03;1.93;;;;;;;6.92;nan;-24010.25;5032130;28;20623;-71
2023/01/13 01:26:26;;;;;;;3.63;2.43;;;;;;;6.96;nan;-24011.25;5032106;28;20159;-71
2023/01/13 01:28:52;;;;;;;3.20;2.17;;;;;;;6.54;nan;-23999.63;5043048;28;20214;-71
2023/01/13 01:31:30;;;;;;;2.07;1.90;;;;;;;6.59;nan;-24001.03;5051719;28;20602;-72
2023/01/13 01:33:56;;;;;;;3.10;2.30;;;;;;;6.96;nan;-24011.38;5052136;28;20249;-72
2023/01/13 01:36:25;;;;;;;5.00;2.40;;;;;;;7.07;nan;-24014.50;5039902;28;20274;-72
2023/01/13 01:38:51;;;;;;;2.23;2.00;;;;;;;6.54;nan;-23999.47;5031979;28;20175;-72
2023/01/13 01:41:21;;;;;;;3.53;2.60;;;;;;;6.69;nan;-24003.72;5031750;28;20179;-72
2023/01/13 01:43:58;;;;;;;2.10;1.73;;;;;;;7.09;nan;-24015.06;5031572;28;20249;-73
2023/01/13 01:46:30;;;;;;;2.03;1.83;;;;;;;6.65;nan;-24002.72;5031989;28;20232;-73
2023/01/13 01:49:02;;;;;;;2.33;2.13;;;;;;;6.57;nan;-24000.31;5031386;28;20175;-72
2023/01/13 01:51:32;;;;;;;1.80;1.70;;;;;;;6.85;nan;-24008.25;5031875;28;20170;-72
2023/01/13 01:54:01;;;;;;;1.93;1.77;;;;;;;6.97;nan;-24011.66;5030676;28;20163;-72
2023/01/13 01:56:27;;;;;;;3.57;2.47;;;;;;;7.01;nan;-24012.81;5031327;28;20195;-73
2023/01/13 01:58:53;;;;;;;2.53;2.33;;;;;;;6.54;nan;-23999.63;5031003;28;20255;-72
2023/01/13 02:01:19;;;;;;;2.70;2.27;;;;;;;6.60;nan;-24001.31;5031639;28;20170;-73
2023/01/13 02:03:55;;;;;;;2.00;1.80;;;;;;;6.57;nan;-24000.31;5031891;28;20600;-73
2023/01/13 02:06:21;;;;;;;2.30;1.93;;;;;;;6.63;nan;-24002.16;5032208;28;20166;-73
2023/01/13 02:08:47;;;;;;;2.37;2.17;;;;;;;6.48;nan;-23997.75;5031493;28;20175;-72
2023/01/13 02:12:28;;;;;;;2.53;1.93;;;;;;;6.57;nan;-24000.31;5032169;28;20224;-72
2023/01/13 02:14:11;;;;;;;1.53;1.43;;;;;;;6.64;nan;-24002.31;5032186;28;20562;-72
2023/01/13 02:16:45;;;;;;;4.40;2.33;;;;;;;6.82;nan;-24007.28;5036027;28;20172;-72
2023/01/13 02:19:45;;;;;;;2.70;2.00;;;;;;;6.79;nan;-24006.56;5035978;28;20178;-73
2023/01/13 02:22:32;;;;;;;2.10;1.80;;;;;;;6.73;nan;-24004.88;5013628;28;20214;-73
2023/01/13 02:25:12;;;;;;;2.57;1.70;;;;;;;6.40;nan;-23995.63;5034491;28;20198;-73
2023/01/13 02:27:43;;;;;;;2.40;2.20;;;;;;;6.84;nan;-24007.84;5035766;28;20186;-72
2023/01/13 02:33:26;;;;;;;1.90;1.73;;;;;;;6.81;nan;-24007.00;5035396;28;20214;-72
2023/01/13 02:36:15;;;;;;;3.13;2.17;;;;;;;6.78;nan;-24006.28;5035090;28;20168;-73
2023/01/13 02:39:04;;;;;;;2.43;2.00;;;;;;;6.77;nan;-24005.84;5034775;28;20187;-73
2023/01/13 02:44:40;;;;;;;2.37;2.00;;;;;;;6.78;nan;-24006.28;5015492;28;20239;-73
2023/01/13 02:47:14;;;;;;;2.77;1.97;;;;;;;6.46;nan;-23997.34;5025277;28;20182;-72
2023/01/13 02:49:45;;;;;;;2.53;2.27;;;;;;;6.83;nan;-24007.69;5034384;28;20194;-73
2023/01/13 02:52:20;;;;;;;4.50;2.63;;;;;;;6.76;nan;-24005.72;5034979;28;20183;-74
2023/01/13 02:54:53;;;;;;;2.97;2.10;;;;;;;6.66;nan;-24003.00;5049424;28;20182;-72
2023/01/13 02:57:20;;;;;;;2.40;2.13;;;;;;;6.62;nan;-24001.75;5035567;28;20547;-72
2023/01/13 02:59:46;;;;;;;2.33;2.13;;;;;;;6.64;nan;-24002.44;5035084;28;20180;-73
2023/01/13 03:02:16;;;;;;;2.20;2.00;;;;;;;6.38;nan;-23994.94;5034842;28;20571;-73
2023/01/13 03:04:55;;;;;;;3.27;2.40;;;;;;;6.56;nan;-24000.03;5033457;28;20206;-73
2023/01/13 03:07:52;;;;;;;2.50;2.30;;;;;;;6.51;nan;-23998.63;5035064;28;20603;-72
2023/01/13 03:10:46;;;;;;;3.93;2.43;;;;;;;6.54;nan;-23999.63;5035372;28;20254;-73
2023/01/13 03:13:35;;;;;;;2.70;2.20;;;;;;;6.50;nan;-23998.47;5034784;28;20558;-74
2023/01/13 03:16:34;;;;;;;2.70;2.20;;;;;;;6.53;nan;-23999.31;5034805;28;20171;-73
2023/01/13 03:19:29;;;;;;;2.30;2.10;;;;;;;6.61;nan;-24001.59;5034934;28;20207;-73
2023/01/13 03:22:19;;;;;;;3.10;2.10;;;;;;;6.61;nan;-24001.47;5034724;28;20250;-72
2023/01/13 03:25:04;;;;;;;2.67;2.33;;;;;;;6.64;nan;-24002.31;5034716;28;20199;-72
2023/01/13 03:27:36;;;;;;;2.50;2.30;;;;;;;6.52;nan;-23998.91;5034730;28;20174;-73
2023/01/13 03:30:15;;;;;;;2.30;2.10;;;;;;;6.42;nan;-23996.06;5034163;28;20234;-73
2023/01/13 03:32:48;;;;;;;2.80;2.40;;;;;;;6.37;nan;-23994.66;5034545;28;20167;-73
2023/01/13 03:35:19;;;;;;;2.07;1.87;;;;;;;6.26;nan;-23991.66;5034834;28;20185;-73
2023/01/13 03:37:50;;;;;;;3.70;2.57;;;;;;;6.11;nan;-23987.41;5034212;28;20203;-73
2023/01/13 03:40:21;;;;;;;2.97;2.47;;;;;;;6.07;nan;-23986.41;5034380;28;20627;-73
2023/01/13 03:45:41;;;;;;;5.40;2.37;;;;;;;6.63;nan;-24002.03;5034152;28;20660;-72
2023/01/13 03:48:15;;;;;;;3.83;2.53;;;;;;;6.40;nan;-23995.50;5034485;28;20191;-73
2023/01/13 03:50:47;;;;;;;2.43;2.17;;;;;;;6.56;nan;-24000.19;5033850;28;20255;-73
2023/01/13 03:53:19;;;;;;;3.77;2.90;;;;;;;6.45;nan;-23996.91;5033972;28;20613;-73
2023/01/13 03:55:49;;;;;;;2.67;1.97;;;;;;;6.44;nan;-23996.63;5033866;28;20198;-72
2023/01/13 03:58:32;;;;;;;3.00;2.77;;;;;;;6.14;nan;-23988.25;5034081;28;20632;-72
2023/01/13 04:01:10;;;;;;;4.20;2.13;;;;;;;6.17;nan;-23989.09;5033178;28;20179;-74
2023/01/13 04:03:47;;;;;;;2.10;1.80;;;;;;;5.99;nan;-23984.13;5026013;28;20273;-72
2023/01/13 04:06:24;;;;;;;4.30;2.67;;;;;;;6.45;nan;-23997.06;5033581;28;20588;-74
2023/01/13 04:09:00;;;;;;;4.30;2.53;;;;;;;5.95;nan;-23983.00;5033999;28;20261;-73
2023/01/13 04:11:32;;;;;;;2.50;2.30;;;;;;;6.50;nan;-23998.34;5033797;28;20167;-73
2023/01/13 04:14:00;;;;;;;4.03;2.13;;;;;;;6.26;nan;-23991.53;5033770;28;20176;-73
2023/01/13 04:16:25;;;;;;;3.40;2.67;;;;;;;5.98;nan;-23983.72;5032591;28;20187;-73
2023/01/13 04:18:50;;;;;;;3.00;2.20;;;;;;;6.56;nan;-24000.03;5033704;28;20170;-73
2023/01/13 04:21:16;;;;;;;3.03;2.00;;;;;;;6.02;nan;-23984.97;5033516;28;20197;-72
2023/01/13 04:23:41;;;;;;;3.90;2.20;;;;;;;6.44;nan;-23996.63;5033753;28;20164;-73
2023/01/13 04:26:07;;;;;;;2.20;2.00;;;;;;;6.21;nan;-23990.38;5032600;28;20572;-73
2023/01/13 04:28:33;;;;;;;3.43;2.50;;;;;;;6.14;nan;-23988.41;5027213;28;20233;-73
2023/01/13 04:30:59;;;;;;;4.03;2.20;;;;;;;6.50;nan;-23998.34;5026275;28;20646;-72
2023/01/13 04:33:25;;;;;;;3.83;2.47;;;;;;;6.20;nan;-23989.97;5026898;28;20254;-73
2023/01/13 04:35:51;;;;;;;4.03;2.63;;;;;;;6.61;nan;-24001.59;5027263;28;20249;-72
2023/01/13 04:38:19;;;;;;;3.07;2.23;;;;;;;6.18;nan;-23989.38;5025431;28;20191;-73
2023/01/13 04:40:45;;;;;;;4.20;2.73;;;;;;;6.59;nan;-24000.88;5026167;28;20262;-73
2023/01/13 04:43:10;;;;;;;3.23;2.70;;;;;;;6.06;nan;-23985.97;5026939;28;20191;-73
2023/01/13 04:45:36;;;;;;;2.30;2.10;;;;;;;6.59;nan;-24001.03;5026273;28;20207;-73
2023/01/13 04:48:01;;;;;;;2.43;2.17;;;;;;;6.46;nan;-23997.34;5026416;28;20183;-74
2023/01/13 04:50:27;;;;;;;6.53;3.17;;;;;;;6.18;nan;-23989.38;5026530;28;20550;-73
2023/01/13 04:52:53;;;;;;;3.50;2.37;;;;;;;5.97;nan;-23983.56;5026164;28;20241;-73
2023/01/13 04:55:21;;;;;;;5.50;2.73;;;;;;;6.47;nan;-23997.63;5024980;28;20191;-73
2023/01/13 04:57:46;;;;;;;5.63;3.03;;;;;;;6.32;nan;-23993.22;5025814;28;20712;-73
2023/01/13 05:00:14;;;;;;;3.73;2.90;;;;;;;6.10;nan;-23987.13;5026557;28;20184;-72
2023/01/13 05:02:40;;;;;;;5.07;3.03;;;;;;;6.43;nan;-23996.50;5025244;28;20272;-73
2023/01/13 05:05:06;;;;;;;3.33;2.13;;;;;;;6.62;nan;-24001.75;5025959;28;20626;-71
2023/01/13 05:07:32;;;;;;;3.70;2.77;;;;;;;6.53;nan;-23999.31;5026123;28;20201;-71
2023/01/13 05:09:57;;;;;;;2.97;2.43;;;;;;;6.29;nan;-23992.38;5024729;28;20186;-72
2023/01/13 05:17:55;;;;;;;2.90;2.23;;;;;;;6.14;nan;-23988.25;5028382;28;20674;-73
2023/01/13 05:20:21;;;;;;;3.27;2.47;;;;;;;6.19;nan;-23989.81;5031578;28;20215;-73
2023/01/13 05:25:37;;;;;;;4.20;2.93;;;;;;;6.19;nan;-23989.81;5031245;28;20374;-72
2023/01/13 05:28:02;;;;;;;4.27;2.30;;;;;;;6.55;nan;-23999.91;5042552;28;20179;-73
2023/01/13 05:30:31;;;;;;;4.47;2.40;;;;;;;6.18;nan;-23989.53;5038560;28;20202;-73
2023/01/13 05:32:56;;;;;;;2.40;2.20;;;;;;;6.59;nan;-24000.88;5033180;28;20266;-73
2023/01/13 05:35:22;;;;;;;3.03;2.43;;;;;;;6.32;nan;-23993.22;5030555;28;20274;-74
2023/01/13 05:37:47;;;;;;;3.53;2.60;;;;;;;6.69;nan;-24003.72;5031752;28;20186;-73
2023/01/13 05:43:21;;;;;;;5.00;2.40;;;;;;;6.61;nan;-24001.47;5031676;28;20241;-73
2023/01/13 05:45:56;;;;;;;3.90;2.40;;;;;;;6.55;nan;-23999.91;5032120;28;20272;-75
2023/01/13 05:48:23;;;;;;;2.67;2.20;;;;;;;6.56;nan;-24000.19;5031900;28;20174;-74
2023/01/13 05:50:49;;;;;;;2.60;2.27;;;;;;;6.54;nan;-23999.63;5031545;28;20673;-73
2023/01/13 05:53:16;;;;;;;2.87;2.40;;;;;;;6.69;nan;-24003.59;5030319;28;20207;-72
2023/01/13 05:55:43;;;;;;;2.57;2.03;;;;;;;6.54;nan;-23999.63;5031317;28;20175;-71
2023/01/13 05:58:09;;;;;;;3.03;2.33;;;;;;;6.33;nan;-23993.50;5031467;28;20167;-72
2023/01/13 06:00:35;;;;;;;3.03;2.43;;;;;;;6.20;nan;-23989.97;5041244;28;20183;-72
2023/01/13 06:03:01;;;;;;;4.00;2.67;;;;;;;6.53;nan;-23999.19;5049534;28;20222;-72
2023/01/13 06:05:28;;;;;;;3.33;2.43;;;;;;;6.70;nan;-24003.88;5051070;28;20206;-72
2023/01/13 06:07:58;;;;;;;2.13;1.83;;;;;;;6.30;nan;-23992.78;5051420;28;20242;-72
2023/01/13 06:10:27;;;;;;;3.87;2.20;;;;;;;6.22;nan;-23990.53;5050737;28;20171;-72
2023/01/13 06:12:52;;;;;;;3.10;2.50;;;;;;;6.15;nan;-23988.53;5051289;28;20171;-72
2023/01/13 06:15:18;;;;;;;2.50;2.30;;;;;;;6.73;nan;-24004.72;5050920;28;20174;-73
2023/01/13 06:17:44;;;;;;;4.03;2.23;;;;;;;6.75;nan;-24005.44;5050983;28;20341;-71
2023/01/13 06:20:11;;;;;;;4.00;2.37;;;;;;;6.78;nan;-24006.13;5050969;28;20219;-72
2023/01/13 06:22:42;;;;;;;2.67;2.07;;;;;;;6.76;nan;-24005.56;5051158;28;20613;-70
2023/01/13 06:25:16;;;;;;;3.10;2.70;;;;;;;6.51;nan;-23998.75;5050714;28;20219;-71
2023/01/13 06:27:42;;;;;;;2.87;2.50;;;;;;;6.31;nan;-23993.09;5051184;28;20182;-71
2023/01/13 06:30:08;;;;;;;2.80;2.03;;;;;;;6.89;nan;-24009.25;5051232;28;20576;-72
2023/01/13 06:32:40;;;;;;;4.27;2.57;;;;;;;6.76;nan;-24005.72;5051308;28;20593;-71
2023/01/13 06:35:11;;;;;;;3.93;2.77;;;;;;;6.91;nan;-24009.81;5051313;28;20167;-72
2023/01/13 06:37:37;;;;;;;3.17;2.63;;;;;;;6.93;nan;-24010.41;5050840;28;20167;-72
2023/01/13 06:40:05;;;;;;;3.17;2.80;;;;;;;6.59;nan;-24000.88;5051142;28;20225;-71
2023/01/13 06:45:20;;;;;;;5.40;3.17;;;;;;;6.45;nan;-23997.06;5050696;28;20209;-73
2023/01/13 06:47:46;;;;;;;4.67;2.63;;;;;;;6.77;nan;-24006.00;5049028;28;20278;-72
2023/01/13 06:50:11;;;;;;;2.97;2.63;;;;;;;5.80;nan;-23978.72;5050248;28;20174;-72
2023/01/13 06:52:36;;;;;;;4.00;3.30;;;;;;;6.77;nan;-24006.00;5050745;28;20562;-71
2023/01/13 06:55:02;;;;;;;7.27;3.53;;;;;;;6.93;nan;-24010.41;5050884;28;20228;-72
2023/01/13 06:57:27;;;;;;;5.33;3.77;;;;;;;6.66;nan;-24002.88;5051176;28;20181;-72
2023/01/13 06:59:53;;;;;;;5.70;3.20;;;;;;;6.65;nan;-24002.72;5050679;28;20175;-72
2023/01/13 07:02:18;;;;;;;9.57;4.03;;;;;;;6.50;nan;-23998.34;5054117;28;20226;-73
2023/01/13 07:04:45;;;;;;;3.83;3.30;;;;;;;6.71;nan;-24004.16;5053552;28;20199;-73
2023/01/13 07:07:11;;;;;;;3.27;2.50;;;;;;;7.19;nan;-24017.63;5054091;28;20163;-72
2023/01/13 07:09:37;;;;;;;4.43;2.83;;;;;;;6.97;nan;-24011.53;5053814;28;20558;-71
2023/01/13 07:12:03;;;;;;;3.83;3.20;;;;;;;6.77;nan;-24006.00;5054280;28;20172;-71
2023/01/13 07:17:12;;;;;;;4.40;2.77;;;;;;;6.62;nan;-24001.88;5053912;28;20186;-71
2023/01/13 07:19:37;;;;;;;3.30;2.77;;;;;;;6.79;nan;-24006.44;5054146;28;20178;-73
2023/01/13 07:22:03;;;;;;;4.10;2.67;;;;;;;6.92;nan;-24010.25;5054023;28;20265;-73
2023/01/13 07:24:28;;;;;;;6.77;3.07;;;;;;;7.37;nan;-24022.88;5053980;28;20668;-72
2023/01/13 07:26:54;;;;;;;7.97;2.90;;;;;;;7.32;nan;-24021.47;5053977;28;20261;-72
2023/01/13 07:29:19;;;;;;;7.83;3.20;;;;;;;7.13;nan;-24016.06;5052893;28;20265;-71
2023/01/13 07:31:45;;;;;;;3.67;2.63;;;;;;;7.35;nan;-24022.31;5053811;28;20648;-73
2023/01/13 07:34:10;;;;;;;2.90;2.33;;;;;;;7.52;nan;-24027.13;5053583;28;20563;-72
2023/01/13 07:36:36;;;;;;;5.80;3.33;;;;;;;7.62;nan;-24029.81;5052124;28;20179;-72
2023/01/13 07:39:02;;;;;;;5.67;2.57;;;;;;;7.32;nan;-24021.31;5053575;28;20254;-73
2023/01/13 07:44:11;;;;;;;3.67;2.97;;;;;;;7.56;nan;-24028.13;5053124;28;20194;-72
2023/01/13 07:46:37;;;;;;;5.73;3.30;;;;;;;6.97;nan;-24011.66;5053045;28;20171;-71
2023/01/13 07:49:04;;;;;;;3.10;2.80;;;;;;;7.18;nan;-24017.34;5053459;28;20171;-72
2023/01/13 07:51:30;;;;;;;5.27;2.57;;;;;;;7.64;nan;-24030.25;5053324;28;20187;-72
2023/01/13 07:53:55;;;;;;;3.47;2.40;;;;;;;7.62;nan;-24029.81;5052685;28;20186;-73
2023/01/13 07:56:20;;;;;;;5.27;3.33;;;;;;;7.41;nan;-24023.88;5051841;28;20208;-73
2023/01/13 07:58:49;;;;;;;4.70;2.50;;;;;;;7.28;nan;-24020.31;5051386;28;20190;-73
2023/01/13 08:01:16;;;;;;;2.53;2.10;;;;;;;7.67;nan;-24031.25;5047993;28;20243;-72
2023/01/13 08:03:42;;;;;;;4.07;2.63;;;;;;;7.49;nan;-24026.28;5030855;28;20227;-74
2023/01/13 08:06:08;;;;;;;3.50;2.53;;;;;;;7.45;nan;-24025.00;5013834;28;20210;-74
2023/01/13 08:08:34;;;;;;;4.37;2.80;;;;;;;7.51;nan;-24026.84;5013717;28;20179;-74
2023/01/13 08:11:00;;;;;;;3.63;2.77;;;;;;;7.72;nan;-24032.66;5013687;28;20564;-73
2023/01/13 08:13:26;;;;;;;7.27;3.73;;;;;;;7.26;nan;-24019.75;5013102;28;20172;-73
2023/01/13 08:15:57;;;;;;;3.70;3.20;;;;;;;7.43;nan;-24024.44;5013773;28;20709;-73
2023/01/13 08:18:22;;;;;;;3.90;2.67;;;;;;;7.06;nan;-24014.22;5014506;28;20211;-73
2023/01/13 08:20:51;;;;;;;4.33;3.10;;;;;;;7.07;nan;-24014.38;5014107;28;20208;-73
2023/01/13 08:23:16;;;;;;;6.33;3.30;;;;;;;6.46;nan;-23997.34;5014054;28;20196;-73
2023/01/13 08:25:42;;;;;;;5.40;3.23;;;;;;;7.05;nan;-24013.81;5013522;28;20234;-72
2023/01/13 08:28:07;;;;;;;7.20;3.33;;;;;;;7.12;nan;-24015.78;5013445;28;20568;-75
2023/01/13 08:30:32;;;;;;;6.03;3.57;;;;;;;6.96;nan;-24011.38;5013657;28;20175;-74
2023/01/13 08:32:58;;;;;;;5.40;3.10;;;;;;;7.25;nan;-24019.34;5013512;28;20180;-74
2023/01/13 08:35:23;;;;;;;5.93;3.40;;;;;;;7.88;nan;-24037.03;5013721;28;20187;-73
2023/01/13 08:37:50;;;;;;;4.57;3.83;;;;;;;8.15;nan;-24044.56;5013043;28;20176;-72
2023/01/13 08:40:18;;;;;;;6.80;4.60;;;;;;;7.60;nan;-24029.25;5013395;28;20177;-78
2023/01/13 08:42:43;;;;;;;7.00;4.17;;;;;;;7.68;nan;-24031.38;5012351;28;20231;-73
2023/01/13 08:45:09;;;;;;;8.73;3.80;;;;;;;7.69;nan;-24031.81;5012657;28;20200;-74
2023/01/13 08:47:35;;;;;;;7.47;4.57;;;;;;;7.28;nan;-24020.31;5013214;28;20168;-73
2023/01/13 08:50:02;;;;;;;12.67;5.13;;;;;;;8.00;nan;-24040.59;5013248;28;20257;-75
2023/01/13 08:52:28;;;;;;;7.27;4.33;;;;;;;8.07;nan;-24042.28;5013175;28;20176;-74
2023/01/13 08:54:54;;;;;;;8.40;4.00;;;;;;;8.49;nan;-24054.19;5013607;28;20631;-74
2023/01/13 08:57:19;;;;;;;7.77;4.50;;;;;;;8.52;nan;-24054.88;5012306;28;20184;-74
2023/01/13 08:59:45;;;;;;;8.03;4.30;;;;;;;8.35;nan;-24050.38;5012297;28;20627;-73
2023/01/13 09:02:16;;;;;;;8.45;4.53;;;;;;;8.58;nan;-24056.72;5019564;28;20222;-74
2023/01/13 09:04:41;;;;;;;12.60;4.90;;;;;;;8.53;nan;-24055.16;5032568;28;20197;-75
2023/01/13 09:07:07;;;;;;;13.25;5.82;;;;;;;8.66;nan;-24058.84;5033089;28;20175;-74
2023/01/13 09:09:32;;;;;;;6.90;4.88;;;;;;;8.81;nan;-24063.25;5032819;28;20163;-72
2023/01/13 09:14:42;;;;;;;9.23;4.38;;;;;;;8.88;nan;-24065.06;5032167;28;20170;-74
2023/01/13 09:17:07;;;;;;;10.98;4.95;;;;;;;8.13;nan;-24044.00;5032884;28;20187;-73
2023/01/13 09:19:33;;;;;;;9.63;5.65;;;;;;;8.94;nan;-24066.63;5032319;28;20248;-74
2023/01/13 09:21:59;;;;;;;9.68;4.75;;;;;;;8.85;nan;-24064.38;5032271;28;20198;-74
2023/01/13 09:24:24;;;;;;;10.05;4.93;;;;;;;9.15;nan;-24072.56;5031507;28;20626;-75
2023/01/13 09:26:50;;;;;;;10.23;4.60;;;;;;;9.30;nan;-24076.81;5031938;28;20626;-75
2023/01/13 09:29:16;;;;;;;7.72;4.72;;;;;;;8.95;nan;-24067.06;5032661;28;20634;-75
2023/01/13 09:31:42;;;;;;;10.40;5.18;;;;;;;9.21;nan;-24074.41;5034317;28;20203;-74
2023/01/13 09:36:56;;;;;;;7.25;4.50;;;;;;;8.81;nan;-24063.25;5032120;28;20254;-74
2023/01/13 09:39:21;;;;;;;10.20;4.63;;;;;;;8.98;nan;-24067.75;5031587;28;20172;-73
2023/01/13 09:44:56;;;;;;;9.00;5.10;;;;;;;8.96;nan;-24067.19;5032055;28;20238;-73
2023/01/13 09:47:31;;;;;;;8.35;4.00;;;;;;;8.92;nan;-24066.22;5047106;28;20249;-74
2023/01/13 09:50:14;;;;;;;6.28;4.35;;;;;;;9.10;nan;-24071.16;5030915;28;20239;-75
2023/01/13 09:52:41;;;;;;;5.20;3.90;;;;;;;8.73;nan;-24060.84;5030723;28;20561;-75
2023/01/13 09:55:14;;;;;;;5.20;3.70;;;;;;;8.42;nan;-24052.19;5031690;28;20179;-75
2023/01/13 09:57:40;;;;;;;5.28;3.78;;;;;;;8.42;nan;-24052.34;5031721;28;20167;-73
2023/01/13 10:00:45;;;;;;;6.07;3.70;;;;;;;8.77;nan;-24062.09;5031315;28;20241;-76
2023/01/13 10:03:19;;;;;;;8.15;4.35;;;;;;;8.76;nan;-24061.69;5008715;28;20227;-75
2023/01/13 10:06:09;;;;;;;5.10;3.50;;;;;;;8.74;nan;-24061.25;5028666;28;20591;-74
2023/01/13 10:08:37;;;;;;;8.27;3.88;;;;;;;9.07;nan;-24070.31;5031903;28;20211;-74
2023/01/13 10:13:59;;;;;;;12.48;5.65;;;;;;;8.72;nan;-24060.69;5030932;28;20179;-74
2023/01/13 10:16:41;;;;;;;11.93;5.57;;;;;;;7.88;nan;-24037.03;5031126;28;20245;-73
2023/01/13 10:19:25;;;;;;;8.25;4.38;;;;;;;8.92;nan;-24066.06;5041663;28;20186;-73
2023/01/13 10:21:53;;;;;;;5.97;4.38;;;;;;;9.16;nan;-24073.00;5051109;28;20186;-74
2023/01/13 10:24:29;;;;;;;8.30;4.72;;;;;;;9.43;nan;-24080.50;5050920;28;20194;-74
2023/01/13 10:27:03;;;;;;;7.20;4.60;;;;;;;8.85;nan;-24064.38;5050712;28;20174;-74
2023/01/13 10:29:30;;;;;;;7.22;4.82;;;;;;;9.14;nan;-24072.28;5051254;28;20166;-73
2023/01/13 10:31:57;;;;;;;8.65;4.55;;;;;;;8.91;nan;-24065.78;5063226;28;20171;-74
2023/01/13 10:34:24;;;;;;;5.90;4.22;;;;;;;9.01;nan;-24068.75;5053915;28;20168;-74
2023/01/13 10:36:59;;;;;;;9.63;4.93;;;;;;;8.89;nan;-24065.34;5053812;28;20656;-74
2023/01/13 10:39:25;;;;;;;9.27;3.97;;;;;;;8.90;nan;-24065.50;5054703;28;20251;-74
2023/01/13 10:42:04;;;;;;;10.40;5.03;;;;;;;8.98;nan;-24067.75;5056143;28;20182;-74
2023/01/13 10:44:29;;;;;;;8.43;4.13;;;;;;;8.88;nan;-24064.94;5055169;28;20159;-74
2023/01/13 10:46:57;;;;;;;10.13;4.60;;;;;;;8.96;nan;-24067.19;5054478;28;20171;-74
2023/01/13 10:49:35;;;;;;;16.10;5.20;;;;;;;9.82;nan;-24091.38;5054265;28;20170;-73
2023/01/13 10:52:02;;;;;;;10.52;4.95;;;;;;;9.41;nan;-24079.78;5055147;28;20262;-76
2023/01/13 10:54:28;;;;;;;10.80;5.18;;;;;;;9.64;nan;-24086.28;5054456;28;20175;-74
2023/01/13 10:57:22;;;;;;;12.15;6.32;;;;;;;9.64;nan;-24086.44;5054198;28;20166;-73
2023/01/13 10:59:49;;;;;;;12.30;5.70;;;;;;;9.75;nan;-24089.53;5053262;28;20645;-73
2023/01/13 11:02:24;;;;;;;8.68;5.13;;;;;;;10.17;nan;-24101.13;5054141;28;20215;-73
2023/01/13 11:04:52;;;;;;;11.68;5.47;;;;;;;10.39;nan;-24107.31;5054141;28;20200;-72
2023/01/13 11:07:30;;;;;;;7.40;4.75;;;;;;;9.91;nan;-24093.78;5054503;28;20232;-73
2023/01/13 11:10:13;;;;;;;10.65;4.78;;;;;;;10.53;nan;-24111.13;5054108;28;20177;-73
2023/01/13 11:13:00;;;;;;;10.82;4.90;;;;;;;10.04;nan;-24097.44;5054222;28;20258;-74
2023/01/13 11:15:46;;;;;;;11.82;5.30;;;;;;;9.44;nan;-24080.78;5054260;28;20175;-73
2023/01/13 11:18:27;;;;;;;6.95;4.30;;;;;;;9.37;nan;-24078.78;5054078;28;20159;-74
2023/01/13 11:20:54;;;;;;;9.15;5.43;;;;;;;9.30;nan;-24076.94;5053727;28;20159;-74
2023/01/13 11:23:43;;;;;;;9.02;4.68;;;;;;;9.64;nan;-24086.44;5053140;28;20171;-75
2023/01/13 11:26:20;;;;;;;10.85;5.50;;;;;;;9.81;nan;-24090.94;5051708;28;20217;-75
2023/01/13 11:29:08;;;;;;;10.63;5.90;;;;;;;9.95;nan;-24095.03;5053579;28;20182;-76
2023/01/13 11:31:46;;;;;;;10.52;5.90;;;;;;;9.87;nan;-24092.63;5054432;28;20682;-74
2023/01/13 11:34:29;;;;;;;11.65;5.95;;;;;;;9.51;nan;-24082.59;5054355;28;20174;-75
2023/01/13 11:36:58;;;;;;;8.73;5.13;;;;;;;9.39;nan;-24079.22;5053723;28;20170;-75
2023/01/13 11:39:34;;;;;;;11.27;5.40;;;;;;;9.58;nan;-24084.59;5051402;28;20174;-75
2023/01/13 11:42:20;;;;;;;9.93;4.85;;;;;;;9.37;nan;-24078.78;5052440;28;20171;-74
2023/01/13 11:45:04;;;;;;;12.63;5.35;;;;;;;9.39;nan;-24079.34;5052349;28;20247;-74
2023/01/13 11:47:31;;;;;;;8.45;4.95;;;;;;;9.33;nan;-24077.66;5051690;28;20539;-75
2023/01/13 11:49:57;;;;;;;11.43;5.22;;;;;;;9.53;nan;-24083.16;5052852;28;20233;-74
2023/01/13 11:52:29;;;;;;;10.57;4.97;;;;;;;9.53;nan;-24083.31;5053204;28;20175;-75
2023/01/13 11:55:25;;;;;;;10.52;5.05;;;;;;;9.54;nan;-24083.47;5053978;28;20178;-75
2023/01/13 11:58:24;;;;;;;10.82;5.57;;;;;;;9.47;nan;-24081.63;5053874;28;20249;-75
2023/01/13 12:01:16;;;;;;;8.50;4.63;;;;;;;9.37;nan;-24078.78;5053260;28;20187;-74
2023/01/13 12:03:56;;;;;;;10.23;5.47;;;;;;;9.31;nan;-24077.25;5054550;28;20234;-75
2023/01/13 12:06:32;;;;;;;8.82;4.82;;;;;;;9.22;nan;-24074.56;5053747;28;20191;-74
2023/01/13 12:09:03;;;;;;;9.90;5.88;;;;;;;9.24;nan;-24075.13;5053847;28;20189;-74
2023/01/13 12:14:59;;;;;;;8.20;4.72;;;;;;;9.83;nan;-24091.66;5053514;28;20694;-74
2023/01/13 12:17:38;;;;;;;7.85;5.00;;;;;;;9.87;nan;-24092.63;5053725;28;20205;-74
2023/01/13 12:20:23;;;;;;;7.10;4.07;;;;;;;9.95;nan;-24095.03;5053750;28;20258;-74
2023/01/13 12:22:52;;;;;;;7.97;4.88;;;;;;;9.76;nan;-24089.66;5043411;28;20183;-75
2023/01/13 12:25:36;;;;;;;8.48;4.60;;;;;;;10.25;nan;-24103.38;5032634;28;20255;-75
2023/01/13 12:28:09;;;;;;;8.82;4.97;;;;;;;9.46;nan;-24081.19;5032983;28;20241;-74
2023/01/13 12:31:00;;;;;;;8.15;4.18;;;;;;;9.58;nan;-24084.72;5033278;28;20175;-74
2023/01/13 12:33:31;;;;;;;9.45;3.75;;;;;;;9.64;nan;-24086.28;5033292;28;20182;-74
2023/01/13 12:36:00;;;;;;;6.07;3.92;;;;;;;9.54;nan;-24083.47;5032869;28;20175;-74
2023/01/13 12:38:36;;;;;;;9.88;4.13;;;;;;;9.43;nan;-24080.34;5032994;28;20179;-75
2023/01/13 12:41:01;;;;;;;10.48;3.70;;;;;;;9.18;nan;-24073.56;5033560;28;20207;-74
2023/01/13 12:46:18;;;;;;;5.90;4.28;;;;;;;9.45;nan;-24081.06;5033132;28;20213;-74
2023/01/13 12:48:56;;;;;;;8.27;4.35;;;;;;;9.43;nan;-24080.50;5032864;28;20241;-74
2023/01/13 12:51:32;;;;;;;10.25;4.82;;;;;;;8.77;nan;-24062.09;5033081;28;20167;-73
2023/01/13 12:54:23;;;;;;;7.63;4.18;;;;;;;9.38;nan;-24079.06;5033153;28;20171;-74